Kemps Landing, Louisiana
Current Conditions -  °F | °C
As of 11:55 AM on Thursday 30 Oct 2014 (Local Time) from KHEZ Reporting Station
Clear Clear  
Wind Chill: 20°   Ceiling: Unl
Heat Index: 20°   Visibility: 10mi
Dew Point:   Wind: 10mph
Humidity: 43%   Direction: 50°NE
Pressure: 30.16"   Gusts: NA
Location:  31.3468°N, 91.6624°W
Report Text: KHEZ 301655Z AUTO 05009KT 10SM CLR 20/07 A3016 RMK AO1
Loading
Personal Weather Stations






























Interactive Weather Map
Tropical Storm Tracking
New forecast layout! Learn more

10-Day Weather Forecast

Advertisements
Track Severe Weather on mobile